This is the latest recevied weather packets stored in our database for station/object KE6JJJ-1. If no packets are shown the sender has not sent any weather packets the latest 10 day(s).
| Time | Temp. | Humidity | Pressure | Rain* | Wind** | Luminosity | Snow |
|---|---|---|---|---|---|---|---|
| 1777370704 | 12.22° C | 82% | 1018.5 hPa | 0 mm | - | 0 W/m² | - |
| 1777368903 | 12.22° C | 81% | 1018.6 hPa | 0 mm | - | 0 W/m² | - |
| 1777365303 | 12.22° C | 80% | 1019 hPa | 0 mm | - | 0 W/m² | - |
| 1777363504 | 12.22° C | 80% | 1019.3 hPa | 0 mm | - | 0 W/m² | - |
| 1777361703 | 12.22° C | 80% | 1019.3 hPa | 0 mm | - | 0 W/m² | - |
| 1777358103 | 12.78° C | 78% | 1019.1 hPa | 0 mm | - | 0 W/m² | - |
| 1777356303 | 12.78° C | 78% | 1019 hPa | 0 mm | - | 0 W/m² | - |
| 1777354503 | 12.78° C | 77% | 1019.2 hPa | 0 mm | - | 0 W/m² | - |
| 1777352703 | 12.78° C | 77% | 1019.2 hPa | 0 mm | - | 0 W/m² | - |
| 1777350903 | 12.78° C | 77% | 1019 hPa | 0 mm | - | 0 W/m² | - |
| 1777347303 | 13.33° C | 76% | 1018 hPa | 0 mm | - | 0 W/m² | - |
| 1777345503 | 13.33° C | 75% | 1017.7 hPa | 0 mm | - | 0 W/m² | - |
| 1777343703 | 13.89° C | 74% | 1017.5 hPa | 0 mm | - | 21 W/m² | - |
| 1777340103 | 15.56° C | 69% | 1017.4 hPa | 0 mm | - | 186 W/m² | - |
| 1777338304 | 15.56° C | 67% | 1017.4 hPa | 0 mm | - | 292 W/m² | - |
| 1777307712 | 15.56° C | 62% | 1016.8 hPa | 0 mm | - | 594 W/m² | - |
| 1777300503 | 12.78° C | 77% | 1016.3 hPa | 0 mm | - | 63 W/m² | - |
| 1777298703 | 11.67° C | 80% | 1016 hPa | 0 mm | - | 44 W/m² | - |
| 1777289703 | 11.67° C | 78% | 1015.3 hPa | 0 mm | - | 0 W/m² | - |
| 1777287903 | 12.22° C | 77% | 1015.2 hPa | 0 mm | - | 0 W/m² | - |
| 1777286103 | 12.22° C | 77% | 1015.1 hPa | 0 mm | - | 0 W/m² | - |
| 1777278903 | 13.33° C | 75% | 1015.3 hPa | 0 mm | - | 0 W/m² | - |
| 1777277103 | 13.33° C | 74% | 1015.3 hPa | 0 mm | - | 0 W/m² | - |
| 1777275303 | 13.33° C | 73% | 1015.4 hPa | 0 mm | - | 0 W/m² | - |
| 1777273503 | 13.33° C | 73% | 1015.3 hPa | 0 mm | - | 0 W/m² | - |
* Rain latest hour (hover to see other rain measurements)
** Current wind speed in m/s (hover to see current wind gust speed)